createdAt,value
2018-05-02T00:01:08.046Z,62.50
2018-05-02T00:11:09.359Z,63.10
2018-05-02T00:21:10.673Z,64.00
2018-05-02T00:31:11.989Z,61.50
2018-05-02T00:41:13.346Z,59.80
2018-05-02T00:51:15.451Z,61.50
2018-05-02T01:01:16.769Z,61.40
2018-05-02T01:11:18.094Z,62.90
2018-05-02T01:21:19.415Z,66.50
2018-05-02T01:31:20.739Z,67.40
2018-05-02T01:41:22.871Z,69.50
2018-05-02T01:51:24.223Z,69.40
2018-05-02T02:01:25.579Z,68.90
2018-05-02T02:11:26.945Z,68.90
2018-05-02T02:21:28.357Z,67.40
2018-05-02T02:31:29.749Z,66.80
2018-05-02T02:41:31.149Z,67.40
2018-05-02T02:51:32.519Z,66.30
2018-05-02T03:01:33.892Z,65.80
2018-05-02T03:11:35.266Z,65.00
2018-05-02T03:21:36.771Z,66.20
2018-05-02T03:31:38.148Z,65.90
2018-05-02T03:41:39.510Z,67.00
2018-05-02T03:51:41.646Z,71.40
2018-05-02T04:01:42.965Z,70.50
2018-05-02T04:11:44.347Z,72.60
2018-05-02T04:21:45.897Z,73.70
2018-05-02T04:31:47.308Z,71.40
2018-05-02T04:41:48.625Z,70.60
2018-05-02T04:51:50.750Z,69.70
2018-05-02T05:01:52.160Z,69.60
2018-05-02T05:11:53.549Z,69.50
2018-05-02T05:21:55.681Z,64.50
2018-05-02T05:31:57.006Z,64.50
2018-05-02T05:41:58.368Z,61.70
2018-05-02T05:51:59.737Z,58.90
2018-05-02T06:02:01.097Z,58.40
2018-05-02T06:12:02.461Z,57.90
2018-05-02T06:22:03.820Z,57.90
2018-05-02T06:32:05.202Z,56.20
2018-05-02T06:42:06.565Z,55.70
2018-05-02T06:52:07.952Z,54.10
2018-05-02T07:02:09.298Z,52.70
2018-05-02T07:12:10.647Z,50.00
2018-05-02T07:22:11.997Z,46.30
2018-05-02T07:32:13.350Z,44.60
2018-05-02T07:42:14.905Z,42.70
2018-05-02T07:52:16.225Z,42.50
2018-05-02T08:02:18.345Z,31.40
2018-05-02T08:12:20.465Z,27.10
2018-05-02T08:22:21.841Z,27.00
2018-05-02T08:32:23.957Z,25.20
2018-05-02T08:42:26.076Z,22.90
2018-05-02T08:52:28.207Z,24.00
2018-05-02T09:02:29.570Z,24.00
2018-05-02T09:12:30.918Z,24.20
2018-05-02T09:22:32.300Z,29.50
2018-05-02T09:32:33.630Z,28.80
2018-05-02T09:42:34.974Z,26.80
2018-05-02T09:52:37.091Z,21.30
2018-05-02T10:02:39.192Z,23.10
2018-05-02T10:12:40.527Z,23.00
2018-05-02T10:22:41.842Z,22.90
2018-05-02T10:32:43.161Z,25.70
2018-05-02T10:42:44.485Z,27.20
2018-05-02T10:52:46.576Z,38.50
2018-05-02T11:02:47.902Z,38.10
2018-05-02T11:12:50.026Z,37.60
2018-05-02T11:22:52.156Z,37.40
2018-05-02T11:32:53.515Z,37.30
2018-05-02T11:42:54.874Z,37.80
2018-05-02T11:52:56.243Z,38.90
2018-05-02T12:02:57.609Z,39.50
2018-05-02T12:12:58.978Z,38.90
2018-05-02T12:33:08.163Z,37.70
2018-05-02T12:43:09.503Z,38.50
2018-05-02T12:53:10.852Z,37.80
2018-05-02T13:03:13.037Z,39.20
2018-05-02T13:13:14.368Z,39.20
2018-05-02T13:23:15.725Z,39.20
2018-05-02T13:33:17.130Z,40.20
2018-05-02T13:43:19.166Z,39.50
2018-05-02T14:13:37.821Z,40.60
2018-05-02T14:23:39.194Z,41.80
2018-05-02T14:33:40.603Z,42.70
2018-05-02T14:43:41.954Z,43.90
2018-05-02T14:53:44.102Z,44.70
2018-05-02T15:13:52.125Z,46.20
2018-05-02T15:23:53.590Z,44.80
2018-05-02T15:33:54.939Z,45.30
2018-05-02T15:44:01.006Z,44.90
2018-05-02T15:54:02.393Z,45.50
2018-05-02T16:04:03.759Z,44.10
2018-05-02T16:14:05.104Z,44.00
2018-05-02T16:34:13.492Z,43.90
2018-05-02T16:44:14.879Z,45.30
2018-05-02T16:54:20.264Z,46.50
2018-05-02T17:04:22.458Z,47.40
2018-05-02T17:14:23.816Z,47.30
2018-05-02T17:24:25.135Z,47.00
2018-05-02T17:34:26.461Z,46.90
2018-05-02T17:44:27.809Z,48.90
2018-05-02T17:54:29.245Z,52.40
2018-05-02T18:04:30.597Z,55.20
2018-05-02T18:14:31.930Z,58.60
2018-05-02T18:24:33.742Z,59.30
2018-05-02T18:34:35.114Z,61.00
2018-05-02T18:44:36.533Z,63.50
2018-05-02T18:54:37.893Z,65.60
2018-05-02T19:04:39.280Z,64.70
2018-05-02T19:14:40.645Z,67.40
2018-05-02T19:24:42.073Z,67.10
2018-05-02T19:34:43.666Z,68.50
2018-05-02T19:44:45.814Z,68.90
2018-05-02T19:54:47.132Z,68.90
2018-05-02T20:04:48.590Z,65.30
2018-05-02T20:14:49.963Z,63.10
2018-05-02T20:24:51.342Z,66.80
2018-05-02T20:34:52.681Z,67.10
2018-05-02T20:44:54.112Z,71.70
2018-05-02T20:54:55.574Z,75.70
2018-05-02T21:04:56.981Z,84.30
2018-05-02T21:14:58.345Z,85.90
2018-05-02T21:24:59.839Z,88.50
2018-05-02T21:35:01.194Z,86.90
2018-05-02T21:45:02.546Z,90.00
2018-05-02T21:55:03.986Z,87.00
2018-05-02T22:05:05.358Z,89.10
2018-05-02T22:15:06.856Z,87.60
2018-05-02T22:25:08.973Z,90.00
2018-05-02T22:35:11.249Z,89.50
2018-05-02T22:45:12.613Z,89.50
2018-05-02T22:55:14.056Z,89.20
2018-05-02T23:05:15.467Z,89.10
2018-05-02T23:15:16.830Z,88.10
2018-05-02T23:25:18.336Z,87.60
2018-05-02T23:35:19.859Z,89.00
2018-05-02T23:45:21.200Z,89.60
2018-05-02T23:55:22.583Z,90.20
